Flight Track Log - Related Links

Times and Time Zones

All times are in EDT time to prevent confusion due to time zone crossing. See the N349MC flight status page for this flight to view local times or setup timezone preferences in your user account.

Time Position Orientation Groundspeed Altitude Reporting Facility
EDT Latitude Longitude Course Direction KTS MPH feet Rate Location/Type
Fri 06:12:53 PM 29.7383 -95.8972 146° Southeast 219 252 2,100  Level Houston Center
Fri 06:14:06 PM 29.6781 -95.8508 146° Southeast 246 283 2,600 486 Climbing Houston Center
Fri 06:14:07 PM 29.6775 -95.8492 111° Southeast 255 293 2,700 387 Climbing Houston Center
Fri 06:15:08 PM 29.6339 -95.7819 127° Southeast 255 293 3,000 148 Climbing Houston Center
Fri 06:16:09 PM 29.5961 -95.7119 122° Southeast 253 291 3,000  Level Houston Center
Fri 06:16:10 PM 29.5969 -95.7183 279° West 253 291 3,000  Level Houston Center
Fri 06:17:12 PM 29.6325 -95.6556 57° Northeast 250 288 3,000  Level Houston Center
Fri 06:17:17 PM 29.6428 -95.6464 38° Northeast 250 288 3,000  Level Houston Center
Fri 06:18:12 PM 29.6911 -95.5997 40° Northeast 246 283 3,000  Level Houston Center
Fri 06:18:15 PM 29.6861 -95.6050 223° Southwest 250 288 3,000  Level Houston Center
Fri 06:19:14 PM 29.6989 -95.5244 80° East 235 270 3,000  Level Houston Center
Fri 06:19:17 PM 29.6994 -95.5336 274° West 245 282 3,000 -92 Level Houston Center
Fri 06:20:19 PM 29.7278 -95.4514 68° East 243 280 2,900 -454 Descending Houston Center
Fri 06:21:16 PM 29.7442 -95.3986 70° East 160 184 2,100 -774 Descending Houston Center
Fri 06:21:21 PM 29.7442 -95.3975 90° East 204 235 2,100 -286 Level Houston Center
Fri 06:22:19 PM 29.7161 -95.3658 136° Southeast 122 140 1,800 -290 Descending Houston Center
Fri 06:22:23 PM 29.7167 -95.3664 319° Northwest 157 181 1,800 -393 Level Houston Center
Fri 06:23:20 PM 29.6925 -95.3375 134° Southeast 125 144 1,400 -484 Descending Houston Center
Fri 06:23:25 PM 29.6925 -95.3364 90° East 135 155 1,300 -885 Descending Houston Center
Fri 06:24:21 PM 29.6661 -95.3047 134° Southeast 124 143 500 -677 Descending Houston Center
Fri 06:24:27 PM 29.6683 -95.3064 327° Northwest 129 148 600 -353 Climbing Houston Center
Fri 06:25:29 PM 29.6428 -95.2750 133° Southeast 127 146 100 -484 Descending Houston Center
Fri 06:27:00 PM 29.6454 -95.2789 North  Level Estimated

Login

Don't have an account? Register now (free) for customized features, flight alerts, and more!